Time;durP1;ratioP1;P1;durP2;ratioP2;P2;SDS_P1;SDS_P2;PMS_P1;PMS_P2;Temp;Humidity;BMP_temperature;BMP_pressure;BME280_temperature;BME280_humidity;BME280_pressure;Samples;Min_cycle;Max_cycle;Signal;HPM_P1;HPM_P2
2021/07/04 00:00:17;;;;;;;6.22;5.45;;;;;;;20.91;55.74;100816.41;699338;28;23470;-62
2021/07/04 00:00:40;;;;;;;6.43;5.72;;;;;;;20.90;55.72;100815.56;694867;28;139267;-62
2021/07/04 00:01:02;;;;;;;6.18;5.57;;;;;;;20.90;55.76;100812.00;698148;28;57742;-62
2021/07/04 00:01:23;;;;;;;6.20;5.60;;;;;;;20.90;55.77;100814.75;698517;28;44410;-62
2021/07/04 00:01:45;;;;;;;6.95;5.90;;;;;;;20.90;55.79;100812.00;696200;28;22989;-62
2021/07/04 00:02:06;;;;;;;6.88;6.13;;;;;;;20.91;55.66;100813.66;696891;28;5573;-62
2021/07/04 00:02:27;;;;;;;6.82;6.13;;;;;;;20.91;55.88;100817.25;696273;28;23483;-62
2021/07/04 00:02:51;;;;;;;6.38;5.65;;;;;;;20.92;55.72;100809.84;696428;28;23281;-62
2021/07/04 00:03:13;;;;;;;6.43;5.78;;;;;;;20.91;55.75;100814.50;693959;28;69469;-62
2021/07/04 00:03:34;;;;;;;6.50;5.90;;;;;;;20.92;55.72;100818.06;695711;28;68911;-63
2021/07/04 00:03:56;;;;;;;6.00;5.40;;;;;;;20.92;55.56;100813.41;699212;28;1871;-62
2021/07/04 00:04:17;;;;;;;6.13;5.53;;;;;;;20.92;55.79;100815.34;699156;28;22401;-62
2021/07/04 00:04:39;;;;;;;5.95;5.45;;;;;;;20.92;55.98;100815.34;699233;28;21541;-62
2021/07/04 00:05:00;;;;;;;6.63;6.03;;;;;;;20.91;55.81;100809.03;698256;28;46423;-62
2021/07/04 00:05:23;;;;;;;7.45;5.97;;;;;;;20.92;55.88;100813.41;698907;28;22400;-62
2021/07/04 00:05:46;;;;;;;6.30;5.70;;;;;;;20.93;55.88;100811.53;696652;28;89422;-62
2021/07/04 00:06:08;;;;;;;5.97;5.47;;;;;;;20.92;55.86;100812.59;696966;28;68484;-62
2021/07/04 00:06:31;;;;;;;5.97;5.47;;;;;;;20.93;56.10;100811.53;697012;28;71124;-62
2021/07/04 00:06:52;;;;;;;7.75;5.78;;;;;;;20.92;55.95;100813.41;698392;28;46083;-62
2021/07/04 00:07:13;;;;;;;6.68;5.70;;;;;;;20.92;55.91;100807.09;698954;28;22469;-62
2021/07/04 00:07:34;;;;;;;5.75;5.15;;;;;;;20.92;55.61;100802.44;699123;28;23490;-63
2021/07/04 00:07:56;;;;;;;6.10;5.50;;;;;;;20.93;55.97;100814.25;698454;28;14931;-63
2021/07/04 00:08:19;;;;;;;6.05;5.45;;;;;;;20.92;56.19;100812.59;697589;28;41973;-63
2021/07/04 00:08:40;;;;;;;6.25;5.63;;;;;;;20.93;55.83;100815.09;699940;28;916;-63
2021/07/04 00:09:02;;;;;;;5.78;5.28;;;;;;;20.92;56.24;100816.16;699193;28;23471;-63
2021/07/04 00:09:24;;;;;;;6.07;5.57;;;;;;;20.92;56.09;100816.16;698207;28;46321;-62
2021/07/04 00:09:45;;;;;;;5.85;5.35;;;;;;;20.92;56.15;100810.66;697958;28;44664;-63
2021/07/04 00:10:07;;;;;;;5.63;5.05;;;;;;;20.91;56.24;100810.91;699559;28;13650;-63
2021/07/04 00:10:32;;;;;;;6.38;5.40;;;;;;;20.91;56.16;100811.75;698465;28;46354;-63
2021/07/04 00:10:58;;;;;;;6.30;5.70;;;;;;;20.92;56.24;100812.59;696053;28;116012;-63
2021/07/04 00:11:19;;;;;;;6.22;5.63;;;;;;;20.91;56.04;100814.50;695909;28;115352;-63
2021/07/04 00:11:40;;;;;;;6.13;5.53;;;;;;;20.91;56.38;100808.16;699001;28;23398;-63
2021/07/04 00:12:01;;;;;;;5.88;5.38;;;;;;;20.90;56.24;100812.00;699361;28;21537;-63
2021/07/04 00:12:22;;;;;;;5.85;5.35;;;;;;;20.90;56.15;100809.25;698405;28;46631;-63
2021/07/04 00:12:46;;;;;;;5.57;5.18;;;;;;;20.90;56.03;100814.75;700160;28;1210;-63
2021/07/04 00:13:07;;;;;;;5.87;5.37;;;;;;;20.90;56.28;100809.25;696737;28;69863;-63
2021/07/04 00:13:30;;;;;;;6.40;5.80;;;;;;;20.90;56.10;100817.50;698641;28;41635;-63
2021/07/04 00:13:51;;;;;;;6.03;5.53;;;;;;;20.90;56.15;100814.75;698099;28;45369;-63
2021/07/04 00:14:12;;;;;;;6.10;5.60;;;;;;;20.88;56.25;100813.06;698045;28;45249;-63
2021/07/04 00:14:35;;;;;;;6.25;5.65;;;;;;;20.88;56.33;100810.34;699159;28;28343;-63
2021/07/04 00:14:56;;;;;;;5.95;5.45;;;;;;;20.88;56.43;100818.56;698731;28;37525;-63
2021/07/04 00:15:19;;;;;;;6.15;5.53;;;;;;;20.88;56.26;100809.50;699954;28;2945;-63
2021/07/04 00:15:41;;;;;;;6.05;5.45;;;;;;;20.89;56.27;100813.91;697097;28;69412;-63
2021/07/04 00:16:03;;;;;;;5.60;5.17;;;;;;;20.88;56.28;100807.59;697382;28;52178;-63
2021/07/04 00:16:25;;;;;;;6.55;5.00;;;;;;;20.90;56.35;100818.31;698092;28;39623;-62
2021/07/04 00:16:47;;;;;;;6.32;5.50;;;;;;;20.90;56.29;100809.25;697601;28;70276;-63
2021/07/04 00:17:08;;;;;;;6.13;5.40;;;;;;;20.92;56.41;100820.81;698546;28;46321;-63
2021/07/04 00:17:29;;;;;;;6.47;5.50;;;;;;;20.91;56.19;100809.03;698826;28;23485;-63
2021/07/04 00:17:51;;;;;;;6.80;5.60;;;;;;;20.91;56.32;100813.66;699497;28;23441;-63
2021/07/04 00:18:15;;;;;;;8.00;5.35;;;;;;;20.93;56.26;100817.00;697783;28;45293;-63
2021/07/04 00:18:36;;;;;;;8.02;5.57;;;;;;;20.93;56.27;100814.25;696448;28;89423;-62
2021/07/04 00:18:57;;;;;;;6.30;5.38;;;;;;;20.92;56.25;100816.16;698502;28;23386;-63
2021/07/04 00:19:19;;;;;;;6.40;5.38;;;;;;;20.93;56.08;100809.59;698578;28;20692;-62
2021/07/04 00:19:42;;;;;;;6.35;5.38;;;;;;;20.92;56.22;100805.19;697693;28;46540;-63
2021/07/04 00:20:06;;;;;;;5.82;5.25;;;;;;;20.93;56.31;100814.25;696959;28;68258;-63
2021/07/04 00:20:27;;;;;;;6.55;5.07;;;;;;;20.92;56.48;100810.66;696441;28;92036;-63
2021/07/04 00:20:49;;;;;;;5.93;5.20;;;;;;;20.93;56.21;100815.09;699106;28;14146;-63
2021/07/04 00:21:11;;;;;;;5.75;5.13;;;;;;;20.94;56.06;100813.16;698240;28;44450;-62
2021/07/04 00:21:33;;;;;;;8.02;5.50;;;;;;;20.94;56.16;100811.28;697904;28;43675;-63
2021/07/04 00:21:54;;;;;;;6.28;5.47;;;;;;;20.95;56.32;100809.34;697309;28;69455;-62
2021/07/04 00:22:15;;;;;;;6.40;5.63;;;;;;;20.94;56.07;100811.28;698594;28;22464;-63
2021/07/04 00:22:37;;;;;;;6.55;5.50;;;;;;;20.95;56.27;100807.44;698769;28;23469;-63
2021/07/04 00:22:59;;;;;;;6.50;5.40;;;;;;;20.94;56.32;100800.28;698792;28;14326;-63
2021/07/04 00:23:23;;;;;;;6.43;5.43;;;;;;;20.96;56.22;100811.84;699344;28;15023;-63
2021/07/04 00:23:45;;;;;;;7.70;5.28;;;;;;;20.96;56.35;100809.09;699703;28;1164;-63
2021/07/04 00:24:06;;;;;;;7.28;5.57;;;;;;;20.97;56.08;100813.53;698048;28;46347;-62
2021/07/04 00:24:28;;;;;;;5.93;5.32;;;;;;;20.97;56.33;100813.53;698434;28;22967;-63
2021/07/04 00:24:49;;;;;;;7.30;5.50;;;;;;;20.97;56.30;100808.03;697904;28;46496;-63
2021/07/04 00:25:12;;;;;;;6.50;5.68;;;;;;;20.97;56.33;100812.69;698467;28;43733;-62
2021/07/04 00:25:35;;;;;;;6.38;5.43;;;;;;;20.96;56.06;100811.03;697278;28;69354;-63
2021/07/04 00:25:56;;;;;;;7.68;5.80;;;;;;;20.94;56.31;100808.53;698441;28;45429;-63
2021/07/04 00:26:18;;;;;;;7.25;5.65;;;;;;;20.94;56.48;100805.78;698014;28;34445;-63
2021/07/04 00:26:39;;;;;;;6.10;5.57;;;;;;;20.94;56.43;100807.69;698033;28;42782;-63
2021/07/04 00:27:00;;;;;;;6.00;5.47;;;;;;;20.93;56.40;100809.59;698665;28;23404;-63
2021/07/04 00:27:21;;;;;;;5.97;5.47;;;;;;;20.93;56.61;100808.78;698939;28;23597;-63
2021/07/04 00:27:42;;;;;;;5.80;5.30;;;;;;;20.92;56.62;100804.34;698861;28;22554;-62
2021/07/04 00:28:05;;;;;;;5.68;5.28;;;;;;;20.92;56.62;100812.59;697639;28;18711;-63
2021/07/04 00:28:26;;;;;;;6.07;5.55;;;;;;;20.92;56.68;100807.09;697644;28;69469;-63
2021/07/04 00:28:47;;;;;;;6.18;5.63;;;;;;;20.91;56.85;100802.69;698767;28;23425;-63
2021/07/04 00:29:09;;;;;;;5.90;5.32;;;;;;;20.92;56.51;100812.59;698788;28;22351;-63
2021/07/04 00:29:30;;;;;;;5.85;5.35;;;;;;;20.92;56.54;100812.59;698332;28;14416;-62
2021/07/04 00:29:52;;;;;;;7.68;5.43;;;;;;;20.93;56.50;100806.03;697883;28;23538;-63
2021/07/04 00:30:15;;;;;;;5.80;5.30;;;;;;;20.92;56.39;100807.91;698048;28;69439;-63
2021/07/04 00:30:37;;;;;;;5.60;5.10;;;;;;;20.92;56.38;100802.44;697135;28;70121;-63
2021/07/04 00:30:59;;;;;;;7.38;5.78;;;;;;;20.93;56.38;100806.03;698085;28;45966;-63
2021/07/04 00:31:21;;;;;;;7.40;6.03;;;;;;;20.92;56.45;100807.91;698557;28;22402;-65
2021/07/04 00:31:42;;;;;;;6.53;5.82;;;;;;;20.92;56.49;100807.09;698081;28;45316;-63
2021/07/04 00:32:03;;;;;;;6.32;5.68;;;;;;;20.93;56.51;100808.78;696971;28;1234;-63
2021/07/04 00:32:24;;;;;;;5.75;5.30;;;;;;;20.93;56.48;100811.53;695546;28;43672;-63
2021/07/04 00:32:46;;;;;;;8.10;5.93;;;;;;;20.94;56.41;100807.69;696220;28;21617;-62
2021/07/04 00:33:08;;;;;;;6.03;5.45;;;;;;;20.93;56.48;100808.78;695573;28;24330;-63
2021/07/04 00:33:29;;;;;;;5.75;5.20;;;;;;;20.94;56.54;100807.69;695889;28;33484;-62
2021/07/04 00:33:50;;;;;;;6.30;5.70;;;;;;;20.94;56.47;100802.19;695189;28;39392;-63
2021/07/04 00:34:11;;;;;;;5.95;5.45;;;;;;;20.94;56.51;100804.94;698345;28;22416;-62
2021/07/04 00:34:33;;;;;;;6.20;5.65;;;;;;;20.94;56.47;100814.03;698621;28;21575;-63
2021/07/04 00:34:55;;;;;;;6.03;5.40;;;;;;;20.96;56.38;100805.53;697904;28;43270;-63
2021/07/04 00:35:17;;;;;;;7.18;5.43;;;;;;;20.94;56.34;100805.78;699058;28;11464;-63
2021/07/04 00:35:38;;;;;;;6.95;5.63;;;;;;;20.94;56.33;100800.28;698235;28;46334;-62
2021/07/04 00:36:00;;;;;;;5.88;5.40;;;;;;;20.94;56.39;100807.69;699286;28;7163;-63
2021/07/04 00:36:21;;;;;;;5.93;5.43;;;;;;;20.94;56.52;100804.94;697617;28;47502;-63
2021/07/04 00:36:44;;;;;;;6.95;5.50;;;;;;;20.93;56.54;100800.53;698358;28;22356;-63
2021/07/04 00:37:05;;;;;;;7.45;5.60;;;;;;;20.92;56.56;100802.44;700245;28;57574;-63
2021/07/04 00:37:26;;;;;;;6.30;5.70;;;;;;;20.93;56.50;100800.53;702219;28;14706;-63
2021/07/04 00:37:49;;;;;;;6.10;5.60;;;;;;;20.92;56.50;100805.19;701884;28;22526;-63
2021/07/04 00:38:11;;;;;;;6.13;5.55;;;;;;;20.91;56.61;100802.69;699754;28;66930;-63
2021/07/04 00:38:32;;;;;;;6.10;5.50;;;;;;;20.90;56.76;100804.59;700134;28;45275;-62
2021/07/04 00:38:53;;;;;;;5.57;5.07;;;;;;;20.91;56.91;100799.94;698364;28;10149;-63
2021/07/04 00:39:15;;;;;;;5.70;5.20;;;;;;;20.90;56.72;100803.78;698843;28;22286;-63
2021/07/04 00:39:37;;;;;;;6.85;5.50;;;;;;;20.90;56.67;100804.59;696634;28;41569;-63
2021/07/04 00:39:58;;;;;;;7.13;5.53;;;;;;;20.91;56.59;100799.94;698125;28;23535;-62
2021/07/04 00:40:21;;;;;;;6.07;5.57;;;;;;;20.91;56.73;100797.19;695003;28;44353;-62
2021/07/04 00:40:44;;;;;;;6.30;5.40;;;;;;;20.91;56.68;100799.94;693909;28;69577;-63
2021/07/04 00:41:05;;;;;;;6.60;5.88;;;;;;;20.91;56.73;100798.03;691556;28;67581;-63
2021/07/04 00:41:27;;;;;;;6.28;5.70;;;;;;;20.91;56.63;100803.53;693098;28;22416;-63
2021/07/04 00:41:48;;;;;;;6.25;5.53;;;;;;;20.91;56.87;100797.19;694137;28;977;-63
2021/07/04 00:42:12;;;;;;;6.05;5.40;;;;;;;20.91;56.61;100798.03;694241;28;21951;-63
2021/07/04 00:42:37;;;;;;;6.15;5.55;;;;;;;20.92;56.57;100796.94;689629;28;126497;-63
2021/07/04 00:42:59;;;;;;;6.07;5.50;;;;;;;20.92;56.69;100793.38;692293;28;70317;-63
2021/07/04 00:43:21;;;;;;;5.53;5.03;;;;;;;20.93;56.57;100801.38;694229;28;1017;-63
2021/07/04 00:43:44;;;;;;;5.78;5.28;;;;;;;20.92;56.52;100794.19;693974;28;46338;-63
2021/07/04 00:44:15;;;;;;;6.80;5.53;;;;;;;20.93;56.63;100797.78;694870;28;61322;-62
2021/07/04 00:44:36;;;;;;;6.00;5.40;;;;;;;20.94;56.43;100799.44;698754;28;1256;-63
2021/07/04 00:44:57;;;;;;;6.05;5.40;;;;;;;20.94;56.46;100793.94;698429;28;23498;-62
2021/07/04 00:45:21;;;;;;;6.55;5.78;;;;;;;20.93;56.50;100798.63;697774;28;44375;-63
2021/07/04 00:45:43;;;;;;;6.20;5.55;;;;;;;20.94;56.50;100799.44;696891;28;67509;-63
2021/07/04 00:46:04;;;;;;;5.97;5.47;;;;;;;20.95;56.32;100796.44;696722;28;45070;-63
2021/07/04 00:46:30;;;;;;;6.18;5.57;;;;;;;20.95;56.46;100795.63;697959;28;39590;-62
2021/07/04 00:46:51;;;;;;;6.25;5.70;;;;;;;20.96;56.35;100797.31;694792;28;116090;-63
2021/07/04 00:47:12;;;;;;;6.93;6.18;;;;;;;20.94;56.49;100800.28;697435;28;21705;-63
2021/07/04 00:47:36;;;;;;;6.88;6.15;;;;;;;20.95;56.41;100795.63;694404;28;59446;-63
2021/07/04 00:47:57;;;;;;;6.00;5.40;;;;;;;20.94;56.46;100797.56;695704;28;34280;-62
2021/07/04 00:48:19;;;;;;;6.22;5.60;;;;;;;20.94;56.50;100794.81;695059;28;46400;-64
2021/07/04 00:48:43;;;;;;;6.15;5.55;;;;;;;20.94;56.59;100800.28;694257;28;67465;-63
2021/07/04 00:49:04;;;;;;;8.38;5.80;;;;;;;20.95;56.54;100801.13;693523;28;41721;-63
2021/07/04 00:49:27;;;;;;;6.32;5.72;;;;;;;20.94;56.43;100797.56;693072;28;69433;-62
2021/07/04 00:49:48;;;;;;;6.15;5.53;;;;;;;20.94;56.76;100794.81;694833;28;22408;-63
2021/07/04 00:50:11;;;;;;;6.28;5.68;;;;;;;20.95;56.53;100795.63;694715;28;38733;-63
2021/07/04 00:50:34;;;;;;;6.30;5.70;;;;;;;20.95;56.56;100796.44;695683;28;46305;-63
2021/07/04 00:50:55;;;;;;;7.22;5.78;;;;;;;20.95;56.11;100793.69;692693;28;69573;-63
2021/07/04 00:51:18;;;;;;;6.13;5.63;;;;;;;20.96;56.49;100800.88;695444;28;46293;-63
2021/07/04 00:51:40;;;;;;;7.20;5.60;;;;;;;20.95;56.45;100801.94;692228;28;37774;-63
2021/07/04 00:52:04;;;;;;;5.80;5.30;;;;;;;20.95;56.58;100801.13;690315;28;46218;-63
2021/07/04 00:52:26;;;;;;;5.93;5.43;;;;;;;20.95;56.65;100792.88;690141;28;91877;-63
2021/07/04 00:52:47;;;;;;;6.15;5.65;;;;;;;20.95;56.67;100801.13;693859;28;47536;-63
2021/07/04 00:53:08;;;;;;;6.53;5.57;;;;;;;20.94;56.55;100793.94;695630;28;22424;-63
2021/07/04 00:53:34;;;;;;;6.47;5.80;;;;;;;20.92;56.54;100796.94;694514;28;92232;-63
2021/07/04 00:53:57;;;;;;;6.30;5.68;;;;;;;20.93;56.83;100797.78;695845;28;67498;-63
2021/07/04 00:54:19;;;;;;;6.30;5.50;;;;;;;20.92;56.66;100796.94;694510;28;69678;-63
2021/07/04 00:54:40;;;;;;;6.22;5.60;;;;;;;20.93;56.77;100795.03;695551;28;12849;-62
2021/07/04 00:55:04;;;;;;;6.07;5.47;;;;;;;20.93;56.61;100793.13;696991;28;874;-63
2021/07/04 00:55:26;;;;;;;6.07;5.50;;;;;;;20.92;56.54;100798.84;691148;28;88009;-63
2021/07/04 00:55:53;;;;;;;6.15;5.55;;;;;;;20.92;56.57;100796.13;686317;28;138630;-62
2021/07/04 00:56:14;;;;;;;6.20;5.60;;;;;;;20.91;56.76;100798.03;689616;28;4134;-63
2021/07/04 00:56:37;;;;;;;6.22;5.60;;;;;;;20.92;56.67;100796.13;692304;28;11072;-63
2021/07/04 00:56:59;;;;;;;7.05;5.53;;;;;;;20.92;56.79;100804.34;689175;28;69447;-63
2021/07/04 00:57:20;;;;;;;6.35;5.50;;;;;;;20.91;56.68;100799.94;690822;28;996;-63
2021/07/04 00:57:45;;;;;;;5.78;5.30;;;;;;;20.89;56.81;100802.91;692498;28;15919;-63
2021/07/04 00:58:08;;;;;;;6.25;5.65;;;;;;;20.90;56.93;100798.28;692881;28;69334;-63
2021/07/04 00:58:30;;;;;;;6.38;5.78;;;;;;;20.88;57.00;100799.34;693966;28;17021;-62
2021/07/04 00:58:54;;;;;;;6.82;5.97;;;;;;;20.87;57.00;100794.09;689432;28;114414;-62
2021/07/04 00:59:15;;;;;;;7.13;5.95;;;;;;;20.87;57.22;100796.84;695808;28;21556;-63
2021/07/04 00:59:38;;;;;;;6.78;5.57;;;;;;;20.87;57.19;100794.94;696562;28;1225;-62
2021/07/04 01:00:00;;;;;;;6.38;5.70;;;;;;;20.86;56.86;100793.28;694963;28;32491;-63
2021/07/04 01:00:24;;;;;;;7.15;6.10;;;;;;;20.88;57.00;100798.53;695181;28;1104;-63
2021/07/04 01:00:45;;;;;;;7.05;6.18;;;;;;;20.88;57.08;100796.59;692050;28;59904;-63
2021/07/04 01:01:09;;;;;;;6.47;5.82;;;;;;;20.90;56.87;100795.53;695782;28;1188;-63
2021/07/04 01:01:31;;;;;;;6.20;5.60;;;;;;;20.89;56.83;100791.94;691239;28;46357;-63
2021/07/04 01:01:58;;;;;;;6.18;5.57;;;;;;;20.88;56.80;100796.59;693105;28;1160;-63
2021/07/04 01:02:19;;;;;;;6.35;5.80;;;;;;;20.88;56.97;100788.38;685191;28;136169;-62
2021/07/04 01:02:41;;;;;;;7.03;5.75;;;;;;;20.89;56.87;100791.94;689625;28;13122;-62
2021/07/04 01:03:04;;;;;;;6.95;5.88;;;;;;;20.87;56.99;100788.63;689971;28;43742;-63
2021/07/04 01:03:27;;;;;;;6.68;5.93;;;;;;;20.87;57.10;100789.44;690103;28;59481;-63
2021/07/04 01:03:51;;;;;;;6.75;6.05;;;;;;;20.88;57.16;100793.03;691106;28;92317;-63
2021/07/04 01:04:12;;;;;;;6.65;5.93;;;;;;;20.87;57.04;100788.63;694958;28;20935;-63
2021/07/04 01:04:35;;;;;;;6.97;6.00;;;;;;;20.86;57.04;100789.69;695656;28;15459;-63
2021/07/04 01:04:56;;;;;;;6.68;5.35;;;;;;;20.85;57.10;100791.59;694081;28;41439;-63
2021/07/04 01:05:19;;;;;;;6.50;5.90;;;;;;;20.86;57.05;100789.69;696954;28;46770;-63
2021/07/04 01:05:43;;;;;;;6.70;6.10;;;;;;;20.86;57.29;100795.16;694453;28;68449;-63
2021/07/04 01:06:07;;;;;;;6.85;6.25;;;;;;;20.85;57.03;100790.78;692031;28;137848;-62
2021/07/04 01:06:28;;;;;;;6.70;6.10;;;;;;;20.85;57.03;100788.84;693861;28;15728;-62
2021/07/04 01:06:49;;;;;;;6.72;6.13;;;;;;;20.85;56.94;100791.59;695169;28;22408;-63
2021/07/04 01:07:13;;;;;;;6.70;6.10;;;;;;;20.85;56.85;100791.59;692379;28;46351;-63
2021/07/04 01:07:35;;;;;;;6.25;5.75;;;;;;;20.83;57.00;100790.16;692826;28;13772;-63
2021/07/04 01:07:57;;;;;;;6.55;5.95;;;;;;;20.83;57.03;100790.16;694041;28;22987;-62
2021/07/04 01:08:20;;;;;;;6.43;5.85;;;;;;;20.81;57.35;100782.19;693241;28;57453;-63
2021/07/04 01:08:43;;;;;;;6.25;5.70;;;;;;;20.79;57.48;100789.00;693132;28;115110;-62
2021/07/04 01:09:05;;;;;;;7.32;5.80;;;;;;;20.76;57.70;100787.56;695706;28;22162;-62
2021/07/04 01:09:27;;;;;;;6.30;5.68;;;;;;;20.76;57.65;100789.50;694519;28;14114;-62
2021/07/04 01:09:49;;;;;;;7.35;5.88;;;;;;;20.74;57.81;100788.91;693459;28;21585;-63
2021/07/04 01:10:13;;;;;;;6.47;5.80;;;;;;;20.73;57.63;100785.31;689869;28;69454;-63
2021/07/04 01:10:36;;;;;;;6.68;6.07;;;;;;;20.71;58.07;100790.22;691251;28;55732;-63
2021/07/04 01:11:06;;;;;;;7.05;5.60;;;;;;;20.69;58.21;100787.72;689375;28;89235;-63
2021/07/04 01:11:28;;;;;;;6.00;5.50;;;;;;;20.67;58.31;100787.13;689840;28;69431;-63
2021/07/04 01:11:50;;;;;;;6.15;5.55;;;;;;;20.67;58.31;100781.66;693548;28;20082;-63
2021/07/04 01:12:11;;;;;;;6.80;6.10;;;;;;;20.66;58.29;100787.38;693262;28;23470;-62
2021/07/04 01:12:33;;;;;;;6.85;6.15;;;;;;;20.65;58.42;100780.22;692010;28;44311;-62
2021/07/04 01:12:56;;;;;;;6.55;5.90;;;;;;;20.64;58.44;100782.13;693668;28;22401;-62
2021/07/04 01:13:18;;;;;;;6.30;5.57;;;;;;;20.62;58.58;100778.75;690732;28;92111;-63
2021/07/04 01:13:49;;;;;;;6.25;5.65;;;;;;;20.63;58.58;100787.84;690699;28;136173;-63
2021/07/04 01:14:12;;;;;;;6.47;5.70;;;;;;;20.63;58.65;100785.09;694410;28;46303;-63
2021/07/04 01:14:34;;;;;;;6.38;5.78;;;;;;;20.63;58.57;100785.09;693749;28;21533;-63
2021/07/04 01:14:56;;;;;;;6.97;5.95;;;;;;;20.63;58.82;100782.34;691349;28;69438;-63
2021/07/04 01:15:19;;;;;;;7.57;6.03;;;;;;;20.61;58.83;100782.59;696149;28;23551;-62
2021/07/04 01:15:43;;;;;;;6.40;5.80;;;;;;;20.61;58.65;100784.47;691849;28;115174;-63
2021/07/04 01:16:06;;;;;;;6.30;5.80;;;;;;;20.61;58.76;100782.59;688715;28;67802;-63
2021/07/04 01:16:28;;;;;;;6.63;5.97;;;;;;;20.60;58.66;100783.66;687515;28;89162;-63
2021/07/04 01:16:49;;;;;;;6.95;6.25;;;;;;;20.59;58.90;100784.72;691372;28;22400;-62
2021/07/04 01:17:10;;;;;;;6.63;6.03;;;;;;;20.59;58.94;100781.16;690905;28;23270;-62
2021/07/04 01:17:33;;;;;;;6.30;5.80;;;;;;;20.58;59.07;100788.56;692976;28;959;-63
2021/07/04 01:17:57;;;;;;;6.22;5.65;;;;;;;20.57;59.14;100786.88;693530;28;93037;-62
2021/07/04 01:18:18;;;;;;;5.82;5.32;;;;;;;20.56;59.22;100785.22;696840;28;69481;-63
2021/07/04 01:18:47;;;;;;;6.28;5.68;;;;;;;20.56;59.09;100785.22;692392;28;137743;-62
2021/07/04 01:19:17;;;;;;;6.25;5.75;;;;;;;20.56;59.13;100781.66;694430;28;137716;-62
2021/07/04 01:19:39;;;;;;;6.28;5.78;;;;;;;20.55;59.17;100778.06;696466;28;43727;-62
2021/07/04 01:20:00;;;;;;;6.55;5.90;;;;;;;20.56;59.02;100784.38;698704;28;44347;-62
2021/07/04 01:20:26;;;;;;;8.52;5.90;;;;;;;20.55;59.10;100780.81;695338;28;45679;-62
2021/07/04 01:20:47;;;;;;;8.30;5.85;;;;;;;20.55;59.16;100788.19;696528;28;76876;-62
2021/07/04 01:21:11;;;;;;;6.72;5.90;;;;;;;20.55;59.19;100789.03;697385;28;22479;-62
2021/07/04 01:21:36;;;;;;;6.28;5.68;;;;;;;20.55;59.28;100789.03;692861;28;161987;-62
2021/07/04 01:21:57;;;;;;;6.70;6.00;;;;;;;20.55;59.37;100779.97;696173;28;66960;-62
2021/07/04 01:22:22;;;;;;;7.05;6.35;;;;;;;20.53;59.13;100778.31;696948;28;69422;-62
2021/07/04 01:22:52;;;;;;;6.97;6.28;;;;;;;20.51;59.29;100785.94;696906;28;92241;-62
2021/07/04 01:23:16;;;;;;;6.85;6.15;;;;;;;20.50;59.46;100783.44;697457;28;137511;-62
2021/07/04 01:23:39;;;;;;;7.20;6.50;;;;;;;20.49;59.39;100779.03;698006;28;136549;-62
2021/07/04 01:24:01;;;;;;;7.13;6.28;;;;;;;20.50;59.12;100783.44;697652;28;69442;-62
2021/07/04 01:24:24;;;;;;;7.22;5.93;;;;;;;20.50;59.18;100780.69;698740;28;21392;-62
2021/07/04 01:24:46;;;;;;;6.75;6.05;;;;;;;20.49;59.30;100785.34;697593;28;45261;-62
2021/07/04 01:25:10;;;;;;;7.03;6.07;;;;;;;20.49;59.30;100788.09;695558;28;44403;-62
2021/07/04 01:25:34;;;;;;;6.90;6.20;;;;;;;20.49;59.50;100781.78;692363;28;136568;-62
2021/07/04 01:25:56;;;;;;;6.32;5.82;;;;;;;20.49;59.50;100784.53;691390;28;87209;-62
2021/07/04 01:26:24;;;;;;;6.32;5.72;;;;;;;20.49;59.50;100776.28;687476;28;138116;-62
2021/07/04 01:26:45;;;;;;;6.45;5.85;;;;;;;20.49;59.34;100777.13;691237;28;45248;-63
2021/07/04 01:27:07;;;;;;;6.55;6.00;;;;;;;20.50;59.26;100784.28;691185;28;46342;-63
2021/07/04 01:27:28;;;;;;;6.80;6.20;;;;;;;20.51;59.10;100783.19;691905;28;23452;-62
2021/07/04 01:27:50;;;;;;;7.10;6.40;;;;;;;20.51;59.09;100785.94;690119;28;44186;-62
2021/07/04 01:28:13;;;;;;;7.25;6.55;;;;;;;20.52;59.06;100782.13;692967;28;23456;-63
2021/07/04 01:28:36;;;;;;;7.97;6.20;;;;;;;20.52;58.83;100782.13;693091;28;102802;-62
2021/07/04 01:29:00;;;;;;;10.02;6.30;;;;;;;20.53;59.08;100775.56;694401;28;104703;-62
2021/07/04 01:29:22;;;;;;;6.47;5.80;;;;;;;20.55;59.04;100777.22;697081;28;44546;-62
2021/07/04 01:29:45;;;;;;;6.60;6.00;;;;;;;20.53;58.84;100772.81;695153;28;69443;-63
2021/07/04 01:30:10;;;;;;;6.53;5.88;;;;;;;20.56;58.99;100776.16;699283;28;19674;-62
2021/07/04 01:30:32;;;;;;;6.88;6.22;;;;;;;20.56;58.69;100774.22;691737;28;134669;-62
2021/07/04 01:30:58;;;;;;;7.20;6.50;;;;;;;20.57;58.46;100773.16;695059;28;61707;-62
2021/07/04 01:31:20;;;;;;;7.47;6.57;;;;;;;20.58;58.59;100777.59;692141;28;58493;-62
2021/07/04 01:31:50;;;;;;;6.82;6.18;;;;;;;20.59;58.81;100779.22;686819;28;136123;-63
2021/07/04 01:32:12;;;;;;;6.68;6.07;;;;;;;20.58;58.61;100777.59;691810;28;69445;-62
2021/07/04 01:32:34;;;;;;;6.43;5.93;;;;;;;20.59;58.56;100775.66;695995;28;21546;-62
2021/07/04 01:32:55;;;;;;;6.55;5.95;;;;;;;20.58;58.61;100772.09;696460;28;22482;-62
2021/07/04 01:33:17;;;;;;;6.88;6.28;;;;;;;20.59;58.51;100772.94;696328;28;44397;-63
2021/07/04 01:33:39;;;;;;;6.55;5.85;;;;;;;20.60;58.41;100771.84;698944;28;20694;-62
2021/07/04 01:34:17;;;;;;;6.65;6.05;;;;;;;20.58;58.62;100774.00;694095;28;137712;-62
2021/07/04 01:34:38;;;;;;;7.38;6.00;;;;;;;20.59;58.62;100767.44;696458;28;43767;-62
2021/07/04 01:34:59;;;;;;;7.78;6.22;;;;;;;20.58;58.58;100771.25;694930;28;23351;-63
2021/07/04 01:35:23;;;;;;;6.88;6.10;;;;;;;20.58;58.65;100768.50;694200;28;44533;-62
2021/07/04 01:35:45;;;;;;;6.50;6.00;;;;;;;20.58;58.49;100774.84;689595;28;53631;-62
2021/07/04 01:36:06;;;;;;;6.85;6.15;;;;;;;20.57;58.56;100772.34;691450;28;23500;-62
2021/07/04 01:36:30;;;;;;;8.02;6.57;;;;;;;20.57;58.60;100775.09;692149;28;93268;-62
2021/07/04 01:36:52;;;;;;;7.13;6.30;;;;;;;20.57;58.61;100775.91;694572;28;22052;-62
2021/07/04 01:37:15;;;;;;;7.45;6.20;;;;;;;20.58;58.62;100774.00;694632;28;61531;-62
2021/07/04 01:37:38;;;;;;;6.37;5.77;;;;;;;20.56;58.64;100771.50;694845;28;93199;-62
2021/07/04 01:38:00;;;;;;;6.25;5.65;;;;;;;20.56;58.63;100778.91;694890;28;46431;-62
2021/07/04 01:38:22;;;;;;;6.68;6.00;;;;;;;20.56;58.60;100774.22;691951;28;69453;-62
2021/07/04 01:38:45;;;;;;;6.65;6.07;;;;;;;20.56;58.67;100776.97;693800;28;46401;-62
2021/07/04 01:39:08;;;;;;;6.60;6.00;;;;;;;20.57;58.57;100773.16;692147;28;69430;-62
2021/07/04 01:39:31;;;;;;;6.55;5.95;;;;;;;20.55;58.72;100769.84;690502;28;93039;-62
2021/07/04 01:39:57;;;;;;;7.55;6.30;;;;;;;20.56;58.63;100770.66;688104;28;135563;-62
2021/07/04 01:40:20;;;;;;;6.93;6.22;;;;;;;20.54;58.64;100768.16;695889;28;20462;-62
2021/07/04 01:40:41;;;;;;;7.35;6.47;;;;;;;20.55;58.85;100769.84;692279;28;70301;-63
2021/07/04 01:41:02;;;;;;;7.43;6.10;;;;;;;20.55;58.85;100769.00;695532;28;21562;-62
2021/07/04 01:41:24;;;;;;;6.80;6.20;;;;;;;20.54;58.76;100776.41;694977;28;41479;-62
2021/07/04 01:41:47;;;;;;;6.88;6.28;;;;;;;20.53;58.78;100772.81;693839;28;27882;-62
2021/07/04 01:42:15;;;;;;;6.72;6.13;;;;;;;20.53;58.73;100775.56;689581;28;131671;-62
2021/07/04 01:42:41;;;;;;;6.72;6.13;;;;;;;20.54;58.63;100773.66;694595;28;42062;-62
2021/07/04 01:43:03;;;;;;;6.90;6.30;;;;;;;20.54;58.88;100765.41;692813;28;115918;-62
2021/07/04 01:43:28;;;;;;;7.70;6.55;;;;;;;20.54;58.81;100765.41;691330;28;98301;-62
2021/07/04 01:43:50;;;;;;;8.75;6.70;;;;;;;20.53;58.72;100772.81;693586;28;45244;-62
2021/07/04 01:44:13;;;;;;;8.60;6.40;;;;;;;20.53;58.78;100769.22;693080;28;90333;-62
2021/07/04 01:44:36;;;;;;;6.88;6.10;;;;;;;20.53;58.91;100770.09;696463;28;20994;-62
2021/07/04 01:44:57;;;;;;;7.30;6.35;;;;;;;20.53;58.98;100769.22;695613;28;36005;-63
2021/07/04 01:45:20;;;;;;;7.28;6.65;;;;;;;20.53;58.81;100769.22;697012;28;23212;-62
2021/07/04 01:45:42;;;;;;;7.50;6.70;;;;;;;20.52;58.76;100770.31;697647;28;91574;-62
2021/07/04 01:46:04;;;;;;;7.80;6.85;;;;;;;20.51;58.97;100766.72;698994;28;44418;-62
2021/07/04 01:46:26;;;;;;;7.47;6.40;;;;;;;20.51;58.79;100772.22;698316;28;4381;-62